TimeEST,TemperatureF,Dew PointF,Humidity,Sea Level PressureIn,VisibilityMPH,Wind Direction,Wind SpeedMPH,Gust SpeedMPH,PrecipitationIn,Events,Conditions,WindDirDegrees,DateUTC
12:56 AM,48.0,41.0,77,29.74,10.0,South,24.2,40.3,0.01,,Overcast,180,2013-02-19 05:56:00
1:56 AM,48.0,41.0,77,29.73,8.0,South,29.9,39.1,0.00,Rain,Light Rain,190,2013-02-19 06:56:00
2:30 AM,46.4,42.8,87,29.74,8.0,SSW,15.0,29.9,0.01,Rain,Light Rain,210,2013-02-19 07:30:00
2:56 AM,46.9,43.0,86,29.74,6.0,SSW,13.8,21.9,0.03,Rain,Light Rain,200,2013-02-19 07:56:00
3:32 AM,44.6,41.0,87,29.77,4.0,West,25.3,34.5,0.06,Rain,Rain,280,2013-02-19 08:32:00
3:47 AM,39.2,37.4,93,29.79,5.0,WNW,24.2,32.2,0.06,Rain,Rain,290,2013-02-19 08:47:00
3:56 AM,39.0,36.0,89,29.80,5.0,WNW,23.0,35.7,0.09,Rain,Rain,290,2013-02-19 08:56:00
4:17 AM,39.2,35.6,87,29.81,4.0,WNW,15.0,25.3,0.03,Rain,Rain,290,2013-02-19 09:17:00
4:31 AM,39.2,37.4,93,29.82,5.0,WNW,11.5,-,0.04,Rain,Light Rain,290,2013-02-19 09:31:00
4:40 AM,37.4,37.4,100,29.83,8.0,West,12.7,-,0.05,Rain,Light Rain,280,2013-02-19 09:40:00
4:56 AM,37.4,35.6,93,29.84,10.0,West,21.9,33.4,N/A,Rain,Light Rain,270,2013-02-19 09:56:00
5:06 AM,39.2,35.6,87,29.83,10.0,West,21.9,28.8,0.00,,Overcast,270,2013-02-19 10:06:00
5:56 AM,37.9,34.0,86,29.86,9.0,West,24.2,31.1,0.00,,Overcast,270,2013-02-19 10:56:00
6:08 AM,37.4,33.8,87,29.86,10.0,West,18.4,27.6,N/A,,Overcast,280,2013-02-19 11:08:00
6:56 AM,37.0,30.9,79,29.89,10.0,West,21.9,29.9,N/A,,Overcast,270,2013-02-19 11:56:00
7:44 AM,33.8,26.6,75,29.92,10.0,West,17.3,25.3,N/A,,Overcast,270,2013-02-19 12:44:00
7:52 AM,33.8,26.6,75,29.92,10.0,West,16.1,23.0,N/A,,Mostly Cloudy,270,2013-02-19 12:52:00
7:56 AM,34.0,26.1,73,29.93,10.0,West,16.1,21.9,N/A,,Mostly Cloudy,260,2013-02-19 12:56:00
8:26 AM,33.8,26.6,75,29.94,10.0,West,16.1,24.2,N/A,,Overcast,260,2013-02-19 13:26:00
8:56 AM,35.1,26.1,70,29.95,10.0,West,23.0,31.1,N/A,,Overcast,260,2013-02-19 13:56:00
9:56 AM,35.1,23.0,61,29.97,10.0,West,24.2,33.4,N/A,,Mostly Cloudy,270,2013-02-19 14:56:00
10:56 AM,35.1,21.9,59,29.99,10.0,West,25.3,32.2,N/A,,Mostly Cloudy,260,2013-02-19 15:56:00
11:56 AM,39.0,24.1,55,30.00,10.0,WSW,20.7,27.6,N/A,,Mostly Cloudy,250,2013-02-19 16:56:00
12:56 PM,39.9,21.0,47,30.01,10.0,West,21.9,33.4,N/A,,Mostly Cloudy,260,2013-02-19 17:56:00
1:56 PM,37.9,19.9,48,30.02,10.0,West,19.6,28.8,N/A,,Mostly Cloudy,260,2013-02-19 18:56:00
2:56 PM,37.9,19.0,47,30.02,10.0,West,19.6,27.6,N/A,,Mostly Cloudy,270,2013-02-19 19:56:00
3:56 PM,39.0,19.0,45,30.05,10.0,West,18.4,26.5,N/A,,Mostly Cloudy,280,2013-02-19 20:56:00
4:56 PM,37.0,16.0,42,30.08,10.0,West,21.9,32.2,N/A,,Scattered Clouds,280,2013-02-19 21:56:00
5:56 PM,35.1,17.1,48,30.11,10.0,WNW,20.7,24.2,N/A,,Scattered Clouds,290,2013-02-19 22:56:00
7:56 PM,30.9,18.0,59,30.16,10.0,WNW,10.4,-,N/A,,Clear,300,2013-02-20 00:56:00
8:56 PM,30.0,19.0,64,30.17,10.0,WNW,10.4,-,N/A,,Partly Cloudy,300,2013-02-20 01:56:00
9:56 PM,28.0,17.1,63,30.18,10.0,WNW,18.4,26.5,N/A,,Partly Cloudy,290,2013-02-20 02:56:00
10:56 PM,27.0,15.1,61,30.20,10.0,WNW,12.7,23.0,N/A,,Partly Cloudy,300,2013-02-20 03:56:00
11:56 PM,25.0,14.0,63,30.22,10.0,WNW,12.7,-,N/A,,Partly Cloudy,290,2013-02-20 04:56:00